Time;durP1;ratioP1;P1;durP2;ratioP2;P2;SDS_P1;SDS_P2;PMS_P1;PMS_P2;Temp;Humidity;BMP_temperature;BMP_pressure;BME280_temperature;BME280_humidity;BME280_pressure;Samples;Min_cycle;Max_cycle;Signal;HPM_P1;HPM_P2
2022/08/21 00:01:52;;;;;;;;;;;22.70;99.90;;;;;;5078707;28;19998;-71
2022/08/21 00:04:17;;;;;;;;;;;22.70;99.90;;;;;;5079260;28;19921;-73
2022/08/21 00:06:43;;;;;;;;;;;22.70;99.90;;;;;;5077298;28;19962;-73
2022/08/21 00:09:09;;;;;;;;;;;22.80;99.90;;;;;;5078001;28;19946;-74
2022/08/21 00:11:36;;;;;;;;;;;23.00;99.90;;;;;;5076271;28;19955;-73
2022/08/21 00:14:02;;;;;;;;;;;23.00;99.90;;;;;;5085134;28;19919;-73
2022/08/21 00:16:27;;;;;;;;;;;23.10;99.90;;;;;;5100914;28;19974;-73
2022/08/21 00:18:53;;;;;;;;;;;23.20;99.90;;;;;;5090829;28;20387;-73
2022/08/21 00:21:19;;;;;;;;;;;23.40;99.90;;;;;;5101345;28;19993;-73
2022/08/21 00:23:46;;;;;;;;;;;23.30;99.90;;;;;;5092446;28;20401;-72
2022/08/21 00:26:12;;;;;;;;;;;23.10;99.90;;;;;;5089042;28;20381;-71
2022/08/21 00:28:37;;;;;;;;;;;23.10;99.90;;;;;;5060744;28;19912;-73
2022/08/21 00:31:03;;;;;;;;;;;23.10;99.90;;;;;;5077168;28;19927;-72
2022/08/21 00:33:29;;;;;;;;;;;23.00;99.90;;;;;;5078687;28;19919;-73
2022/08/21 00:35:55;;;;;;;;;;;22.90;99.90;;;;;;5078823;28;19912;-72
2022/08/21 00:38:21;;;;;;;;;;;22.80;99.90;;;;;;5077952;28;20004;-73
2022/08/21 00:40:46;;;;;;;;;;;22.80;99.90;;;;;;5078208;28;19916;-72
2022/08/21 00:43:13;;;;;;;;;;;22.80;99.90;;;;;;5079930;28;19937;-72
2022/08/21 00:45:39;;;;;;;;;;;22.80;99.90;;;;;;5076243;28;21618;-73
2022/08/21 00:48:05;;;;;;;;;;;22.80;99.90;;;;;;5077486;28;20003;-73
2022/08/21 00:50:33;;;;;;;;;;;22.70;99.90;;;;;;5074399;28;20383;-72
2022/08/21 00:52:59;;;;;;;;;;;22.70;99.90;;;;;;5076798;28;19952;-73
2022/08/21 00:55:24;;;;;;;;;;;22.80;99.90;;;;;;5077891;28;19952;-73
2022/08/21 00:57:52;;;;;;;;;;;22.80;99.90;;;;;;5080287;28;19919;-74
2022/08/21 01:00:21;;;;;;;;;;;22.80;99.90;;;;;;5077657;28;19920;-72
2022/08/21 01:02:46;;;;;;;;;;;22.90;99.90;;;;;;5076914;28;20065;-72
2022/08/21 01:05:13;;;;;;;;;;;22.90;99.90;;;;;;5093634;28;19967;-73
2022/08/21 01:07:38;;;;;;;;;;;22.90;99.90;;;;;;5074539;28;19951;-72
2022/08/21 01:10:06;;;;;;;;;;;22.90;99.90;;;;;;5059782;28;20021;-72
2022/08/21 01:12:32;;;;;;;;;;;23.00;99.90;;;;;;5072520;28;19913;-73
2022/08/21 01:14:58;;;;;;;;;;;23.00;99.90;;;;;;5078854;28;19916;-73
2022/08/21 01:17:24;;;;;;;;;;;23.10;99.90;;;;;;5081934;28;20085;-73
2022/08/21 01:19:50;;;;;;;;;;;23.20;99.90;;;;;;5081851;28;19918;-72
2022/08/21 01:22:15;;;;;;;;;;;23.20;99.90;;;;;;5080597;28;19924;-73
2022/08/21 01:24:41;;;;;;;;;;;23.10;99.90;;;;;;5097225;28;20010;-73
2022/08/21 01:27:06;;;;;;;;;;;23.10;99.90;;;;;;5068833;28;20396;-73
2022/08/21 01:29:32;;;;;;;;;;;23.10;99.90;;;;;;5081679;28;19912;-73
2022/08/21 01:31:59;;;;;;;;;;;23.20;99.90;;;;;;5083104;28;20006;-74
2022/08/21 01:34:25;;;;;;;;;;;23.20;99.90;;;;;;5079601;28;20182;-73
2022/08/21 01:36:50;;;;;;;;;;;23.10;99.90;;;;;;5082729;28;20090;-72
2022/08/21 01:39:16;;;;;;;;;;;23.10;99.90;;;;;;5080066;28;19999;-72
2022/08/21 01:41:42;;;;;;;;;;;23.00;99.90;;;;;;5084183;28;19912;-72
2022/08/21 01:44:08;;;;;;;;;;;23.00;99.90;;;;;;5082801;28;19916;-73
2022/08/21 01:46:34;;;;;;;;;;;23.10;99.90;;;;;;5077798;28;20011;-72
2022/08/21 01:49:00;;;;;;;;;;;23.20;99.90;;;;;;5082952;28;19963;-73
2022/08/21 01:51:25;;;;;;;;;;;23.20;99.90;;;;;;5080706;28;19964;-72
2022/08/21 01:53:51;;;;;;;;;;;23.20;99.90;;;;;;5080733;28;19912;-73
2022/08/21 01:56:17;;;;;;;;;;;23.20;99.90;;;;;;5077547;28;19920;-71
2022/08/21 01:58:44;;;;;;;;;;;23.20;99.90;;;;;;5080588;28;20517;-75
2022/08/21 02:01:10;;;;;;;;;;;23.30;99.90;;;;;;5081349;28;20385;-76
2022/08/21 02:03:36;;;;;;;;;;;23.40;99.90;;;;;;5082274;28;19916;-75
2022/08/21 02:06:05;;;;;;;;;;;23.40;99.90;;;;;;5079245;28;19916;-75
2022/08/21 02:08:30;;;;;;;;;;;23.50;99.90;;;;;;5082301;28;20358;-77
2022/08/21 02:10:56;;;;;;;;;;;23.50;99.90;;;;;;5078983;28;19919;-76
2022/08/21 02:13:22;;;;;;;;;;;23.50;99.90;;;;;;5083559;28;20305;-77
2022/08/21 02:15:47;;;;;;;;;;;23.50;99.90;;;;;;5088535;28;19992;-76
2022/08/21 02:18:13;;;;;;;;;;;23.50;99.90;;;;;;5079914;28;19918;-76
2022/08/21 02:20:41;;;;;;;;;;;23.50;99.90;;;;;;5081800;28;20399;-76
2022/08/21 02:23:08;;;;;;;;;;;23.40;99.90;;;;;;5079997;28;19935;-76
2022/08/21 02:25:34;;;;;;;;;;;23.20;99.90;;;;;;5058597;28;19920;-77
2022/08/21 02:28:02;;;;;;;;;;;23.10;99.90;;;;;;5082444;28;19912;-77
2022/08/21 02:30:29;;;;;;;;;;;23.10;99.90;;;;;;5070492;28;19956;-76
2022/08/21 02:32:55;;;;;;;;;;;23.00;99.90;;;;;;5080456;28;20277;-76
2022/08/21 02:35:20;;;;;;;;;;;23.00;99.90;;;;;;5078083;28;19920;-77
2022/08/21 02:37:48;;;;;;;;;;;23.00;99.90;;;;;;5078256;28;19912;-77
2022/08/21 02:40:14;;;;;;;;;;;22.90;99.90;;;;;;5078992;28;19932;-77
2022/08/21 02:42:39;;;;;;;;;;;22.80;99.90;;;;;;5086270;28;19916;-76
2022/08/21 02:45:06;;;;;;;;;;;22.60;99.90;;;;;;5095770;28;20338;-77
2022/08/21 02:47:31;;;;;;;;;;;22.60;99.90;;;;;;5090404;28;19908;-77
2022/08/21 02:49:57;;;;;;;;;;;22.50;99.90;;;;;;5080345;28;19923;-76
2022/08/21 02:52:23;;;;;;;;;;;22.50;99.90;;;;;;5082893;28;20417;-77
2022/08/21 02:54:49;;;;;;;;;;;22.40;99.90;;;;;;5082215;28;19958;-77
2022/08/21 02:57:15;;;;;;;;;;;22.50;99.90;;;;;;5083405;28;19917;-77
2022/08/21 02:59:41;;;;;;;;;;;22.50;99.90;;;;;;5081575;28;19919;-76
2022/08/21 03:02:06;;;;;;;;;;;22.50;99.90;;;;;;5078232;28;20346;-77
2022/08/21 03:04:32;;;;;;;;;;;22.50;99.90;;;;;;5079484;28;19912;-77
2022/08/21 03:06:57;;;;;;;;;;;22.50;99.90;;;;;;5082764;28;19959;-77
2022/08/21 03:09:23;;;;;;;;;;;22.40;99.90;;;;;;5077486;28;19916;-77
2022/08/21 03:11:51;;;;;;;;;;;22.40;99.90;;;;;;5081347;28;20459;-76
2022/08/21 03:14:17;;;;;;;;;;;22.40;99.90;;;;;;5082597;28;19916;-76
2022/08/21 03:16:42;;;;;;;;;;;22.30;99.90;;;;;;5077945;28;20369;-77
2022/08/21 03:19:08;;;;;;;;;;;22.20;99.90;;;;;;5077204;28;20046;-76
2022/08/21 03:21:34;;;;;;;;;;;22.10;99.90;;;;;;5081711;28;19965;-77
2022/08/21 03:23:59;;;;;;;;;;;22.10;99.90;;;;;;5063829;28;20374;-75
2022/08/21 03:26:25;;;;;;;;;;;22.00;99.90;;;;;;5076142;28;19912;-76
2022/08/21 03:28:51;;;;;;;;;;;22.00;99.90;;;;;;5081241;28;19923;-77
2022/08/21 03:31:17;;;;;;;;;;;21.90;99.90;;;;;;5076028;28;19917;-77
2022/08/21 03:33:43;;;;;;;;;;;22.10;99.90;;;;;;5078194;28;20365;-77
2022/08/21 03:36:09;;;;;;;;;;;22.00;99.90;;;;;;5076024;28;19919;-76
2022/08/21 03:38:36;;;;;;;;;;;22.00;99.90;;;;;;5060236;28;20122;-76
2022/08/21 03:41:02;;;;;;;;;;;22.00;99.90;;;;;;5079356;28;20289;-77
2022/08/21 03:43:28;;;;;;;;;;;21.90;99.90;;;;;;5062662;28;19920;-74
2022/08/21 03:45:54;;;;;;;;;;;21.90;99.90;;;;;;5077154;28;20446;-77
2022/08/21 03:48:19;;;;;;;;;;;21.80;99.90;;;;;;5075820;28;19916;-77
2022/08/21 03:50:46;;;;;;;;;;;21.70;99.90;;;;;;5076358;28;19999;-78
2022/08/21 03:53:13;;;;;;;;;;;21.70;99.90;;;;;;5079451;28;19986;-75
2022/08/21 03:55:39;;;;;;;;;;;21.80;99.90;;;;;;5094592;27;19912;-76
2022/08/21 03:58:05;;;;;;;;;;;21.90;99.90;;;;;;5076450;28;19920;-75
2022/08/21 04:00:30;;;;;;;;;;;21.90;99.90;;;;;;5079328;28;20010;-76
2022/08/21 04:02:56;;;;;;;;;;;22.00;99.90;;;;;;5085020;28;20302;-76
2022/08/21 04:05:27;;;;;;;;;;;21.90;99.90;;;;;;5058461;28;19919;-75
2022/08/21 04:08:00;;;;;;;;;;;21.90;99.90;;;;;;5101513;28;20312;-76
2022/08/21 04:10:27;;;;;;;;;;;21.80;99.90;;;;;;5077530;28;19912;-76
2022/08/21 04:12:53;;;;;;;;;;;21.70;99.90;;;;;;5075439;28;19916;-76
2022/08/21 04:15:20;;;;;;;;;;;21.70;99.90;;;;;;5077732;28;19916;-76
2022/08/21 04:17:46;;;;;;;;;;;21.70;99.90;;;;;;5090229;28;20015;-75
2022/08/21 04:20:12;;;;;;;;;;;21.60;99.90;;;;;;5097207;28;20109;-75
2022/08/21 04:22:38;;;;;;;;;;;21.60;99.90;;;;;;5076189;28;20276;-75
2022/08/21 04:25:04;;;;;;;;;;;21.50;99.90;;;;;;5089739;28;20102;-75
2022/08/21 04:27:30;;;;;;;;;;;21.50;99.90;;;;;;5076626;28;20022;-76
2022/08/21 04:29:55;;;;;;;;;;;21.60;99.90;;;;;;5074500;28;19912;-76
2022/08/21 04:32:22;;;;;;;;;;;21.60;99.90;;;;;;5074428;28;19913;-75
2022/08/21 04:34:48;;;;;;;;;;;21.60;99.90;;;;;;5076086;28;20270;-77
2022/08/21 04:37:15;;;;;;;;;;;21.60;99.90;;;;;;5076861;28;19924;-77
2022/08/21 04:39:41;;;;;;;;;;;21.70;99.90;;;;;;5077880;28;19932;-77
2022/08/21 04:42:07;;;;;;;;;;;21.80;99.90;;;;;;5075761;28;19942;-75
2022/08/21 04:44:32;;;;;;;;;;;21.70;99.90;;;;;;5077972;28;19916;-77
2022/08/21 04:46:58;;;;;;;;;;;21.70;99.90;;;;;;5078905;28;20003;-75
2022/08/21 04:49:24;;;;;;;;;;;21.80;99.90;;;;;;5077285;28;19912;-75
2022/08/21 04:51:49;;;;;;;;;;;21.80;99.90;;;;;;5081656;28;19927;-75
2022/08/21 04:54:20;;;;;;;;;;;21.80;99.90;;;;;;5080036;28;19916;-76
2022/08/21 04:56:49;;;;;;;;;;;21.90;99.90;;;;;;5080145;28;19973;-77
2022/08/21 04:59:26;;;;;;;;;;;21.90;99.90;;;;;;5081795;28;19913;-77
2022/08/21 05:01:53;;;;;;;;;;;21.90;99.90;;;;;;5092375;28;20037;-76
2022/08/21 05:04:22;;;;;;;;;;;21.90;99.90;;;;;;5089333;28;20205;-76
2022/08/21 05:06:48;;;;;;;;;;;22.00;99.90;;;;;;5068205;28;19920;-75
2022/08/21 05:09:15;;;;;;;;;;;22.10;99.90;;;;;;5081152;28;19919;-75
2022/08/21 05:11:41;;;;;;;;;;;22.10;99.90;;;;;;5081230;28;19969;-75
2022/08/21 05:14:07;;;;;;;;;;;22.10;99.90;;;;;;5080144;28;19919;-76
2022/08/21 05:16:33;;;;;;;;;;;22.10;99.90;;;;;;5081388;28;19912;-76
2022/08/21 05:18:58;;;;;;;;;;;22.10;99.90;;;;;;5082426;28;20255;-76
2022/08/21 05:21:24;;;;;;;;;;;22.10;99.90;;;;;;5064002;28;19916;-76
2022/08/21 05:23:49;;;;;;;;;;;22.20;99.90;;;;;;5086793;28;20374;-76
2022/08/21 05:26:15;;;;;;;;;;;22.10;99.90;;;;;;5089068;28;19917;-76
2022/08/21 05:28:41;;;;;;;;;;;22.20;99.90;;;;;;5082431;28;19988;-75
2022/08/21 05:31:06;;;;;;;;;;;22.20;99.90;;;;;;5078113;28;19912;-77
2022/08/21 05:33:32;;;;;;;;;;;22.30;99.90;;;;;;5082227;28;20293;-76
2022/08/21 05:35:57;;;;;;;;;;;22.30;99.90;;;;;;5079093;28;19925;-76
2022/08/21 05:38:24;;;;;;;;;;;22.30;99.90;;;;;;5077474;28;20272;-76
2022/08/21 05:40:49;;;;;;;;;;;22.40;99.90;;;;;;5080000;28;19920;-76
2022/08/21 05:43:16;;;;;;;;;;;22.40;99.90;;;;;;5090908;28;19915;-77
2022/08/21 05:45:42;;;;;;;;;;;22.40;99.90;;;;;;5094138;28;19912;-76
2022/08/21 05:48:12;;;;;;;;;;;22.40;99.90;;;;;;5080827;28;19919;-76
2022/08/21 05:50:38;;;;;;;;;;;22.50;99.90;;;;;;5079655;28;19962;-76
2022/08/21 05:53:04;;;;;;;;;;;22.60;99.90;;;;;;5084093;28;19971;-76
2022/08/21 05:55:29;;;;;;;;;;;22.50;99.90;;;;;;5063296;28;19916;-77
2022/08/21 05:57:55;;;;;;;;;;;22.60;99.90;;;;;;5080855;28;20362;-76
2022/08/21 06:00:22;;;;;;;;;;;22.70;99.90;;;;;;5082966;28;19916;-76
2022/08/21 06:02:49;;;;;;;;;;;22.70;99.90;;;;;;5078097;28;19912;-77
2022/08/21 06:05:15;;;;;;;;;;;22.70;99.90;;;;;;5078712;28;20023;-78
2022/08/21 06:07:41;;;;;;;;;;;22.80;99.90;;;;;;5080990;28;19924;-77
2022/08/21 06:10:07;;;;;;;;;;;22.90;99.90;;;;;;5081133;28;20197;-77
2022/08/21 06:12:32;;;;;;;;;;;22.90;99.90;;;;;;5098916;28;20330;-76
2022/08/21 06:14:58;;;;;;;;;;;23.00;99.90;;;;;;5091492;28;19913;-76
2022/08/21 06:17:23;;;;;;;;;;;23.20;99.90;;;;;;5075873;28;19917;-75
2022/08/21 06:19:52;;;;;;;;;;;23.30;99.90;;;;;;5086368;28;19916;-77
2022/08/21 06:22:18;;;;;;;;;;;23.40;99.90;;;;;;5065348;28;19975;-75
2022/08/21 06:24:44;;;;;;;;;;;23.50;99.90;;;;;;5062612;28;20022;-75
2022/08/21 06:27:10;;;;;;;;;;;23.70;99.90;;;;;;5079995;28;19919;-75
2022/08/21 06:29:35;;;;;;;;;;;23.80;99.90;;;;;;5098229;28;19992;-77
2022/08/21 06:32:02;;;;;;;;;;;23.90;99.90;;;;;;5079700;28;19912;-76
2022/08/21 06:34:27;;;;;;;;;;;24.00;99.90;;;;;;5076734;28;19973;-75
2022/08/21 06:36:53;;;;;;;;;;;24.20;99.90;;;;;;5079988;28;20578;-75
2022/08/21 06:39:19;;;;;;;;;;;24.40;99.90;;;;;;5079890;28;19958;-75
2022/08/21 06:41:44;;;;;;;;;;;24.60;99.90;;;;;;5081373;28;19913;-76
2022/08/21 06:44:10;;;;;;;;;;;24.50;99.90;;;;;;5076461;28;19963;-75
2022/08/21 06:46:35;;;;;;;;;;;24.70;99.90;;;;;;5074321;28;20003;-76
2022/08/21 06:49:01;;;;;;;;;;;24.90;99.90;;;;;;5094543;28;19916;-75
2022/08/21 06:51:27;;;;;;;;;;;25.10;99.90;;;;;;5090988;28;19912;-76
2022/08/21 06:53:53;;;;;;;;;;;25.30;99.90;;;;;;5097549;28;20516;-76
2022/08/21 06:56:19;;;;;;;;;;;25.40;99.90;;;;;;5107109;28;19916;-75
2022/08/21 06:58:44;;;;;;;;;;;25.30;99.90;;;;;;5088223;28;20358;-76
2022/08/21 07:01:10;;;;;;;;;;;25.20;99.90;;;;;;5078654;28;20010;-75
2022/08/21 07:03:37;;;;;;;;;;;25.20;99.90;;;;;;5078053;28;19939;-75
2022/08/21 07:06:07;;;;;;;;;;;25.30;99.90;;;;;;5086193;28;20357;-76
2022/08/21 07:08:33;;;;;;;;;;;25.30;99.90;;;;;;5096582;28;19965;-75
2022/08/21 07:11:01;;;;;;;;;;;25.60;99.90;;;;;;5089440;28;19928;-75
2022/08/21 07:13:27;;;;;;;;;;;25.90;99.90;;;;;;5095729;28;19999;-77
2022/08/21 07:15:52;;;;;;;;;;;26.10;99.90;;;;;;5087468;28;20002;-75
2022/08/21 07:18:18;;;;;;;;;;;26.30;99.90;;;;;;5083838;28;19916;-77
2022/08/21 07:20:44;;;;;;;;;;;26.40;99.90;;;;;;5090865;28;20280;-75
2022/08/21 07:23:17;;;;;;;;;;;26.50;99.90;;;;;;5090153;28;20078;-77
2022/08/21 07:25:43;;;;;;;;;;;26.60;99.90;;;;;;5093706;28;19966;-74
2022/08/21 07:28:08;;;;;;;;;;;26.70;99.90;;;;;;5091933;28;19962;-76
2022/08/21 07:30:34;;;;;;;;;;;26.90;99.90;;;;;;5092296;28;20288;-76
2022/08/21 07:32:59;;;;;;;;;;;26.90;99.90;;;;;;5090764;28;19919;-77
2022/08/21 07:35:25;;;;;;;;;;;26.90;99.90;;;;;;5091434;28;19928;-78
2022/08/21 07:37:51;;;;;;;;;;;27.00;99.90;;;;;;5097301;28;20170;-77
2022/08/21 07:40:16;;;;;;;;;;;27.20;99.90;;;;;;5086618;28;20038;-76
2022/08/21 07:42:43;;;;;;;;;;;27.40;99.90;;;;;;5078841;28;20047;-77
2022/08/21 07:45:09;;;;;;;;;;;27.40;99.90;;;;;;5096315;28;20992;-76
2022/08/21 07:47:35;;;;;;;;;;;27.40;99.90;;;;;;5097930;28;19912;-67
2022/08/21 07:50:00;;;;;;;;;;;27.30;99.90;;;;;;5086008;28;20416;-63
2022/08/21 07:52:26;;;;;;;;;;;27.10;99.90;;;;;;5095150;28;19955;-63
2022/08/21 07:54:52;;;;;;;;;;;26.80;99.90;;;;;;5098215;28;19958;-64
2022/08/21 07:57:17;;;;;;;;;;;26.70;99.90;;;;;;5111369;28;19952;-63
2022/08/21 07:59:43;;;;;;;;;;;26.50;99.90;;;;;;5111251;28;20330;-64
2022/08/21 08:02:09;;;;;;;;;;;26.10;99.90;;;;;;5096236;28;19920;-63
2022/08/21 08:04:34;;;;;;;;;;;25.90;99.90;;;;;;5088509;28;19916;-65
2022/08/21 08:07:00;;;;;;;;;;;25.80;99.90;;;;;;5073590;28;19912;-63
2022/08/21 08:09:25;;;;;;;;;;;25.90;99.90;;;;;;5090851;28;19908;-63
2022/08/21 08:11:51;;;;;;;;;;;25.90;99.90;;;;;;5090989;28;19915;-63
2022/08/21 08:14:17;;;;;;;;;;;26.10;99.90;;;;;;5089717;28;19913;-64
2022/08/21 08:16:42;;;;;;;;;;;26.20;99.90;;;;;;5092535;28;20031;-63
2022/08/21 08:19:08;;;;;;;;;;;26.50;99.90;;;;;;5090724;28;19918;-64
2022/08/21 08:21:34;;;;;;;;;;;26.50;99.90;;;;;;5094584;28;19966;-65
2022/08/21 08:24:00;;;;;;;;;;;26.50;99.90;;;;;;5093504;28;19939;-63
2022/08/21 08:26:26;;;;;;;;;;;26.60;99.90;;;;;;5090801;28;20373;-65
2022/08/21 08:28:51;;;;;;;;;;;26.70;99.90;;;;;;5091236;28;19912;-63
2022/08/21 08:31:17;;;;;;;;;;;26.80;99.90;;;;;;5091781;28;19912;-66
2022/08/21 08:33:42;;;;;;;;;;;27.10;99.90;;;;;;5100929;28;19912;-63
2022/08/21 08:36:18;;;;;;;;;;;27.40;99.90;;;;;;5100961;28;19911;-63
2022/08/21 08:38:44;;;;;;;;;;;27.50;99.90;;;;;;5103555;28;20100;-64
2022/08/21 08:41:12;;;;;;;;;;;27.70;99.90;;;;;;5098646;28;20007;-64
2022/08/21 08:43:39;;;;;;;;;;;27.80;99.90;;;;;;5094060;28;19916;-64
2022/08/21 08:46:10;;;;;;;;;;;28.10;99.90;;;;;;5091866;28;20108;-63
2022/08/21 08:48:40;;;;;;;;;;;28.40;99.90;;;;;;5085636;28;19919;-64
2022/08/21 08:51:12;;;;;;;;;;;28.30;99.90;;;;;;5102833;28;20419;-65
2022/08/21 08:54:10;;;;;;;;;;;28.30;99.90;;;;;;5087970;28;19939;-65
2022/08/21 08:56:36;;;;;;;;;;;28.10;99.90;;;;;;5061667;28;19912;-65
2022/08/21 08:59:06;;;;;;;;;;;28.10;99.90;;;;;;5103897;28;19914;-64
2022/08/21 09:01:32;;;;;;;;;;;28.30;99.90;;;;;;5092272;28;19923;-64
2022/08/21 09:03:58;;;;;;;;;;;28.20;99.90;;;;;;5099208;28;19916;-65
2022/08/21 09:06:26;;;;;;;;;;;28.20;99.90;;;;;;5093314;28;19965;-64
2022/08/21 09:08:55;;;;;;;;;;;27.90;99.90;;;;;;5088437;28;20448;-62
2022/08/21 09:11:29;;;;;;;;;;;27.70;99.90;;;;;;5086688;28;19970;-64
2022/08/21 09:14:16;;;;;;;;;;;27.50;99.90;;;;;;5088003;28;20004;-63
2022/08/21 09:17:01;;;;;;;;;;;27.30;99.90;;;;;;5086358;28;19912;-63
2022/08/21 09:19:32;;;;;;;;;;;27.10;99.90;;;;;;5089126;28;20054;-64
2022/08/21 09:21:58;;;;;;;;;;;27.00;99.90;;;;;;5085964;28;19924;-65
2022/08/21 09:24:42;;;;;;;;;;;26.80;99.90;;;;;;5095480;28;19920;-65
2022/08/21 09:27:09;;;;;;;;;;;26.70;99.90;;;;;;5098336;28;19912;-64
2022/08/21 09:29:36;;;;;;;;;;;26.80;99.90;;;;;;5091771;28;19912;-64
2022/08/21 09:32:04;;;;;;;;;;;26.80;99.90;;;;;;5087209;28;19913;-63
2022/08/21 09:34:31;;;;;;;;;;;26.90;99.90;;;;;;5094812;28;19919;-63
2022/08/21 09:36:57;;;;;;;;;;;26.90;99.90;;;;;;5100551;28;19919;-64
2022/08/21 09:39:24;;;;;;;;;;;27.10;99.90;;;;;;5114434;28;19907;-65
2022/08/21 09:42:04;;;;;;;;;;;27.30;99.90;;;;;;5098481;28;19912;-63
2022/08/21 09:44:32;;;;;;;;;;;27.40;99.90;;;;;;5094166;28;19986;-64
2022/08/21 09:46:58;;;;;;;;;;;27.40;99.90;;;;;;5101869;28;20518;-65
2022/08/21 09:49:27;;;;;;;;;;;27.20;99.90;;;;;;5114401;28;19922;-64
2022/08/21 09:51:54;;;;;;;;;;;27.00;99.90;;;;;;5104857;28;19912;-64
2022/08/21 09:54:24;;;;;;;;;;;26.80;99.90;;;;;;5100089;28;20277;-65
2022/08/21 09:59:37;;;;;;;;;;;26.50;99.90;;;;;;5093224;28;19939;-64
2022/08/21 10:02:19;;;;;;;;;;;26.50;99.90;;;;;;5095472;28;19913;-64
2022/08/21 10:04:49;;;;;;;;;;;26.50;99.90;;;;;;5102826;28;20269;-65
2022/08/21 10:07:15;;;;;;;;;;;26.60;99.90;;;;;;5111286;28;19911;-65
2022/08/21 10:09:41;;;;;;;;;;;26.60;99.90;;;;;;5109043;28;20292;-64
2022/08/21 10:12:12;;;;;;;;;;;26.70;99.90;;;;;;5098354;28;20499;-65
2022/08/21 10:14:53;;;;;;;;;;;26.80;99.90;;;;;;5098763;28;19918;-63
2022/08/21 10:17:19;;;;;;;;;;;27.10;99.90;;;;;;5079022;28;19908;-65
2022/08/21 10:20:05;;;;;;;;;;;27.30;99.90;;;;;;5076945;28;19963;-65
2022/08/21 10:22:33;;;;;;;;;;;27.40;99.90;;;;;;5101404;28;19916;-64
2022/08/21 10:25:05;;;;;;;;;;;27.60;99.90;;;;;;5078427;28;20247;-64
2022/08/21 10:27:49;;;;;;;;;;;27.90;99.90;;;;;;5073858;28;19912;-62
2022/08/21 10:30:33;;;;;;;;;;;28.10;99.90;;;;;;5098839;28;20389;-63
2022/08/21 10:33:02;;;;;;;;;;;28.10;99.90;;;;;;5098576;28;19943;-63
2022/08/21 10:35:36;;;;;;;;;;;28.00;99.90;;;;;;5095028;28;19981;-64
2022/08/21 10:38:10;;;;;;;;;;;27.90;99.90;;;;;;5074310;28;19912;-66
2022/08/21 10:40:38;;;;;;;;;;;27.90;99.90;;;;;;5091562;28;19916;-66
2022/08/21 10:43:30;;;;;;;;;;;27.80;99.90;;;;;;5096742;28;21513;-65
2022/08/21 10:46:15;;;;;;;;;;;27.70;99.90;;;;;;5062286;28;19934;-66
2022/08/21 10:48:43;;;;;;;;;;;27.40;99.90;;;;;;5093753;28;20061;-66
2022/08/21 10:51:16;;;;;;;;;;;27.30;99.90;;;;;;5097584;28;20334;-67
2022/08/21 10:53:56;;;;;;;;;;;27.40;99.90;;;;;;5093406;28;20369;-66
2022/08/21 10:56:28;;;;;;;;;;;27.50;99.90;;;;;;5099836;28;20334;-68
2022/08/21 10:58:54;;;;;;;;;;;27.40;99.90;;;;;;5098975;28;19919;-66
2022/08/21 11:01:28;;;;;;;;;;;27.30;99.90;;;;;;5092996;28;20306;-69
2022/08/21 11:04:09;;;;;;;;;;;27.30;99.90;;;;;;5094492;28;19920;-68
2022/08/21 11:06:36;;;;;;;;;;;27.30;99.90;;;;;;5107067;28;19994;-69
2022/08/21 11:09:17;;;;;;;;;;;27.30;99.90;;;;;;5085175;28;21049;-68
2022/08/21 11:11:54;;;;;;;;;;;27.30;99.90;;;;;;5090508;28;20282;-67
2022/08/21 11:14:25;;;;;;;;;;;27.20;99.90;;;;;;5083522;28;19916;-68
2022/08/21 11:17:01;;;;;;;;;;;27.10;99.90;;;;;;5097018;28;19912;-68
2022/08/21 11:19:33;;;;;;;;;;;27.00;99.90;;;;;;5064153;28;19912;-67
2022/08/21 11:22:05;;;;;;;;;;;27.10;99.90;;;;;;5078031;28;19928;-66
2022/08/21 11:24:34;;;;;;;;;;;27.10;99.90;;;;;;5091180;28;19922;-67
2022/08/21 11:27:18;;;;;;;;;;;27.30;99.90;;;;;;5092393;28;19947;-67
2022/08/21 11:29:47;;;;;;;;;;;27.20;99.90;;;;;;5094380;28;19916;-69
2022/08/21 11:32:24;;;;;;;;;;;27.10;99.90;;;;;;5075001;28;19919;-66
2022/08/21 11:35:08;;;;;;;;;;;27.10;99.90;;;;;;5088787;28;19995;-67
2022/08/21 11:37:53;;;;;;;;;;;27.20;99.90;;;;;;5097805;28;19916;-67
2022/08/21 11:40:21;;;;;;;;;;;27.30;99.90;;;;;;5094566;28;19912;-67
2022/08/21 11:42:50;;;;;;;;;;;27.30;99.90;;;;;;5088069;28;19964;-67
2022/08/21 11:45:18;;;;;;;;;;;27.40;99.90;;;;;;5082163;28;19916;-68
2022/08/21 11:47:44;;;;;;;;;;;27.40;99.90;;;;;;5100928;28;19920;-67
2022/08/21 11:50:14;;;;;;;;;;;27.30;99.90;;;;;;5095789;28;19912;-69
2022/08/21 11:52:59;;;;;;;;;;;27.40;99.90;;;;;;5094486;28;19908;-67
2022/08/21 11:55:32;;;;;;;;;;;27.30;99.90;;;;;;5073649;28;20360;-69
2022/08/21 11:58:00;;;;;;;;;;;27.30;99.90;;;;;;5091856;28;20280;-67
2022/08/21 12:00:41;;;;;;;;;;;27.30;99.90;;;;;;5101524;28;19968;-67
2022/08/21 12:03:22;;;;;;;;;;;27.40;99.90;;;;;;5087669;28;20029;-67
2022/08/21 12:05:56;;;;;;;;;;;27.40;99.90;;;;;;5087054;28;20159;-67
2022/08/21 12:08:29;;;;;;;;;;;27.30;99.90;;;;;;5098586;28;20427;-68
2022/08/21 12:11:01;;;;;;;;;;;27.20;99.90;;;;;;5097108;28;20009;-69
2022/08/21 12:13:31;;;;;;;;;;;27.20;99.90;;;;;;5088654;28;20397;-68
2022/08/21 12:16:06;;;;;;;;;;;27.20;99.90;;;;;;5109074;28;20564;-67
2022/08/21 12:18:32;;;;;;;;;;;27.00;99.90;;;;;;5109081;28;19957;-67
2022/08/21 12:21:00;;;;;;;;;;;27.20;99.90;;;;;;5093654;28;20341;-68
2022/08/21 12:23:27;;;;;;;;;;;27.30;99.90;;;;;;5105951;28;19920;-67
2022/08/21 12:26:12;;;;;;;;;;;27.30;99.90;;;;;;5091503;28;20408;-69
2022/08/21 12:28:38;;;;;;;;;;;27.40;99.90;;;;;;5088406;28;20445;-67
2022/08/21 12:31:04;;;;;;;;;;;27.40;99.90;;;;;;5088448;28;20304;-68
2022/08/21 12:33:41;;;;;;;;;;;27.50;99.90;;;;;;5088870;28;19920;-68
2022/08/21 12:36:21;;;;;;;;;;;27.50;99.90;;;;;;5098815;28;19964;-67
2022/08/21 12:39:10;;;;;;;;;;;27.60;99.90;;;;;;5090556;28;20002;-66
2022/08/21 12:41:41;;;;;;;;;;;27.60;99.90;;;;;;5105380;28;19998;-67
2022/08/21 12:44:09;;;;;;;;;;;27.50;99.90;;;;;;5094358;28;19923;-68
2022/08/21 12:46:37;;;;;;;;;;;27.40;99.90;;;;;;5089712;28;19920;-66
2022/08/21 12:49:28;;;;;;;;;;;27.20;99.90;;;;;;5090923;28;19908;-67
2022/08/21 12:52:00;;;;;;;;;;;27.20;99.90;;;;;;5091036;28;19930;-66
2022/08/21 12:54:27;;;;;;;;;;;27.30;99.90;;;;;;5087380;28;19912;-68
2022/08/21 12:56:57;;;;;;;;;;;27.30;99.90;;;;;;5098421;28;19912;-66
2022/08/21 12:59:23;;;;;;;;;;;27.50;99.90;;;;;;5088081;28;19913;-67
2022/08/21 13:01:51;;;;;;;;;;;27.50;99.90;;;;;;5088482;28;20011;-66
2022/08/21 13:04:20;;;;;;;;;;;27.60;99.90;;;;;;5087389;28;19926;-68
2022/08/21 13:06:47;;;;;;;;;;;27.40;99.90;;;;;;5089729;28;19964;-64
2022/08/21 13:09:14;;;;;;;;;;;27.20;99.90;;;;;;5089603;28;19920;-66
2022/08/21 13:11:41;;;;;;;;;;;27.30;99.90;;;;;;5094852;28;19919;-68
2022/08/21 13:14:14;;;;;;;;;;;27.30;99.90;;;;;;5095669;28;19912;-67
2022/08/21 13:16:39;;;;;;;;;;;27.40;99.90;;;;;;5093613;28;20388;-66
2022/08/21 13:19:06;;;;;;;;;;;27.50;99.90;;;;;;5092019;28;19912;-67
2022/08/21 13:21:39;;;;;;;;;;;27.30;99.90;;;;;;5092586;28;20315;-67
2022/08/21 13:24:19;;;;;;;;;;;27.30;99.90;;;;;;5105543;28;19915;-66
2022/08/21 13:26:45;;;;;;;;;;;27.40;99.90;;;;;;5092181;28;19965;-67
2022/08/21 13:29:12;;;;;;;;;;;27.50;99.90;;;;;;5093177;28;20002;-67
2022/08/21 13:31:39;;;;;;;;;;;27.50;99.90;;;;;;5092637;28;19908;-67
2022/08/21 13:34:05;;;;;;;;;;;27.40;99.90;;;;;;5073578;28;19913;-68
2022/08/21 13:36:35;;;;;;;;;;;27.50;99.90;;;;;;5104656;28;19908;-68
2022/08/21 13:39:03;;;;;;;;;;;27.40;99.90;;;;;;5092707;28;19912;-67
2022/08/21 13:41:30;;;;;;;;;;;27.50;99.90;;;;;;5092196;28;19912;-67
2022/08/21 13:43:58;;;;;;;;;;;27.40;99.90;;;;;;5095622;28;19916;-68
2022/08/21 13:46:24;;;;;;;;;;;27.50;99.90;;;;;;5090026;28;19999;-67
2022/08/21 13:48:50;;;;;;;;;;;27.40;99.90;;;;;;5072970;28;19952;-68
2022/08/21 13:51:15;;;;;;;;;;;27.40;99.90;;;;;;5103419;28;20511;-68
2022/08/21 13:53:41;;;;;;;;;;;27.20;99.90;;;;;;5091076;28;20357;-67
2022/08/21 13:56:08;;;;;;;;;;;27.20;99.90;;;;;;5097902;28;19999;-68
2022/08/21 13:58:43;;;;;;;;;;;27.30;99.90;;;;;;5096055;28;20384;-68
2022/08/21 14:01:18;;;;;;;;;;;27.60;99.90;;;;;;5090355;28;19912;-69
2022/08/21 14:03:45;;;;;;;;;;;27.80;99.90;;;;;;5094095;28;20288;-70
2022/08/21 14:06:12;;;;;;;;;;;27.90;99.90;;;;;;5094642;28;19916;-67
2022/08/21 14:08:39;;;;;;;;;;;27.90;99.90;;;;;;5092945;28;19912;-67
2022/08/21 14:11:05;;;;;;;;;;;27.80;99.90;;;;;;5101529;28;20336;-68
2022/08/21 14:13:37;;;;;;;;;;;27.90;99.90;;;;;;5092906;28;19912;-68
2022/08/21 14:16:09;;;;;;;;;;;27.90;99.90;;;;;;5096693;28;19968;-69
2022/08/21 14:18:42;;;;;;;;;;;27.90;99.90;;;;;;5096701;28;19912;-69
2022/08/21 14:21:09;;;;;;;;;;;28.10;99.90;;;;;;5096797;28;19916;-69
2022/08/21 14:23:35;;;;;;;;;;;28.00;99.90;;;;;;5091035;28;19920;-69
2022/08/21 14:26:02;;;;;;;;;;;28.20;99.90;;;;;;5100615;28;19911;-69